sensor_id;sensor_type;location;lat;lon;timestamp;temperature;humidity
45233;DHT22;30969;51.052;17.056;2023-04-24T04:55:21;13.80;76.90
45233;DHT22;30969;51.052;17.056;2023-04-24T05:00:24;14.00;78.10
45233;DHT22;30969;51.052;17.056;2023-04-24T05:05:28;14.50;75.70
45233;DHT22;30969;51.052;17.056;2023-04-24T05:10:33;15.00;73.60
45233;DHT22;30969;51.052;17.056;2023-04-24T05:15:37;15.30;72.00
45233;DHT22;30969;51.052;17.056;2023-04-24T05:20:40;15.60;70.70
45233;DHT22;30969;51.052;17.056;2023-04-24T05:25:47;15.80;69.60
45233;DHT22;30969;51.052;17.056;2023-04-24T05:30:50;16.00;68.60
45233;DHT22;30969;51.052;17.056;2023-04-24T05:35:54;16.10;67.40
45233;DHT22;30969;51.052;17.056;2023-04-24T05:41:00;16.30;67.20
45233;DHT22;30969;51.052;17.056;2023-04-24T05:46:03;16.40;65.70
45233;DHT22;30969;51.052;17.056;2023-04-24T05:51:07;16.50;64.10
45233;DHT22;30969;51.052;17.056;2023-04-24T05:56:11;16.60;63.30
45233;DHT22;30969;51.052;17.056;2023-04-24T06:01:15;16.70;62.80
45233;DHT22;30969;51.052;17.056;2023-04-24T06:06:19;16.80;62.10
45233;DHT22;30969;51.052;17.056;2023-04-24T06:11:23;16.80;61.60
45233;DHT22;30969;51.052;17.056;2023-04-24T06:16:27;17.00;62.00
45233;DHT22;30969;51.052;17.056;2023-04-24T06:21:31;17.10;61.60
45233;DHT22;30969;51.052;17.056;2023-04-24T06:26:36;17.10;61.20
45233;DHT22;30969;51.052;17.056;2023-04-24T06:31:39;17.10;59.90
45233;DHT22;30969;51.052;17.056;2023-04-24T06:36:43;17.20;59.80
45233;DHT22;30969;51.052;17.056;2023-04-24T06:41:48;17.20;59.80
45233;DHT22;30969;51.052;17.056;2023-04-24T06:46:51;17.10;59.30
45233;DHT22;30969;51.052;17.056;2023-04-24T06:51:55;17.20;59.50
45233;DHT22;30969;51.052;17.056;2023-04-24T06:57:00;17.30;59.20
45233;DHT22;30969;51.052;17.056;2023-04-24T07:02:04;17.40;59.30
45233;DHT22;30969;51.052;17.056;2023-04-24T07:07:08;17.50;59.30
45233;DHT22;30969;51.052;17.056;2023-04-24T07:12:16;17.60;59.20
45233;DHT22;30969;51.052;17.056;2023-04-24T07:17:22;17.70;59.30
45233;DHT22;30969;51.052;17.056;2023-04-24T07:22:26;17.80;58.10
45233;DHT22;30969;51.052;17.056;2023-04-24T07:27:31;17.80;57.10
45233;DHT22;30969;51.052;17.056;2023-04-24T07:32:34;17.80;57.70
45233;DHT22;30969;51.052;17.056;2023-04-24T07:37:38;17.90;56.30
45233;DHT22;30969;51.052;17.056;2023-04-24T07:42:43;18.00;55.80
45233;DHT22;30969;51.052;17.056;2023-04-24T07:47:46;18.10;54.80
45233;DHT22;30969;51.052;17.056;2023-04-24T07:52:50;18.20;54.80
45233;DHT22;30969;51.052;17.056;2023-04-24T07:57:55;18.30;54.70
45233;DHT22;30969;51.052;17.056;2023-04-24T08:02:58;18.50;54.80
45233;DHT22;30969;51.052;17.056;2023-04-24T08:08:02;18.60;54.90
45233;DHT22;30969;51.052;17.056;2023-04-24T08:13:07;18.70;55.00
45233;DHT22;30969;51.052;17.056;2023-04-24T08:18:10;18.70;55.10
45233;DHT22;30969;51.052;17.056;2023-04-24T08:23:15;18.70;54.50
45233;DHT22;30969;51.052;17.056;2023-04-24T08:28:20;18.60;53.70
45233;DHT22;30969;51.052;17.056;2023-04-24T08:33:24;18.60;54.20
45233;DHT22;30969;51.052;17.056;2023-04-24T08:38:28;18.60;55.10
45233;DHT22;30969;51.052;17.056;2023-04-24T08:43:33;18.60;56.10
45233;DHT22;30969;51.052;17.056;2023-04-24T08:48:39;18.70;57.00
45233;DHT22;30969;51.052;17.056;2023-04-24T08:53:42;18.80;57.10
45233;DHT22;30969;51.052;17.056;2023-04-24T08:58:48;18.80;59.10
45233;DHT22;30969;51.052;17.056;2023-04-24T09:03:52;18.80;59.80
45233;DHT22;30969;51.052;17.056;2023-04-24T09:08:57;19.00;60.50
45233;DHT22;30969;51.052;17.056;2023-04-24T09:14:04;19.10;60.50
45233;DHT22;30969;51.052;17.056;2023-04-24T09:19:08;19.40;61.40
45233;DHT22;30969;51.052;17.056;2023-04-24T09:24:15;19.60;59.90
45233;DHT22;30969;51.052;17.056;2023-04-24T09:29:21;19.80;59.00
45233;DHT22;30969;51.052;17.056;2023-04-24T09:34:26;20.10;59.10
45233;DHT22;30969;51.052;17.056;2023-04-24T09:39:29;20.10;56.80
45233;DHT22;30969;51.052;17.056;2023-04-24T09:44:34;20.20;56.30
45233;DHT22;30969;51.052;17.056;2023-04-24T09:49:38;20.20;56.20
45233;DHT22;30969;51.052;17.056;2023-04-24T09:54:52;20.10;56.10
45233;DHT22;30969;51.052;17.056;2023-04-24T09:59:57;20.00;56.40
45233;DHT22;30969;51.052;17.056;2023-04-24T10:05:01;20.00;57.00
45233;DHT22;30969;51.052;17.056;2023-04-24T10:10:05;20.00;56.90
45233;DHT22;30969;51.052;17.056;2023-04-24T10:15:11;20.00;57.50
45233;DHT22;30969;51.052;17.056;2023-04-24T10:20:16;20.10;56.70
45233;DHT22;30969;51.052;17.056;2023-04-24T10:25:21;20.10;56.20
45233;DHT22;30969;51.052;17.056;2023-04-24T10:30:28;20.00;54.90
45233;DHT22;30969;51.052;17.056;2023-04-24T10:35:39;20.00;55.40
45233;DHT22;30969;51.052;17.056;2023-04-24T10:40:44;20.00;55.00
45233;DHT22;30969;51.052;17.056;2023-04-24T10:46:02;20.10;55.20
45233;DHT22;30969;51.052;17.056;2023-04-24T10:51:11;20.20;55.40
45233;DHT22;30969;51.052;17.056;2023-04-24T10:56:16;20.10;54.50
45233;DHT22;30969;51.052;17.056;2023-04-24T11:01:28;20.00;54.20
45233;DHT22;30969;51.052;17.056;2023-04-24T11:06:34;19.90;53.60
45233;DHT22;30969;51.052;17.056;2023-04-24T11:11:43;19.80;53.40
45233;DHT22;30969;51.052;17.056;2023-04-24T11:16:53;19.80;52.50
45233;DHT22;30969;51.052;17.056;2023-04-24T11:21:59;19.90;52.90
45233;DHT22;30969;51.052;17.056;2023-04-24T11:27:11;20.00;52.30
45233;DHT22;30969;51.052;17.056;2023-04-24T11:32:28;20.00;52.10
45233;DHT22;30969;51.052;17.056;2023-04-24T11:37:35;20.20;51.20
45233;DHT22;30969;51.052;17.056;2023-04-24T11:42:40;20.30;50.30
45233;DHT22;30969;51.052;17.056;2023-04-24T11:47:46;20.40;50.30
45233;DHT22;30969;51.052;17.056;2023-04-24T11:52:50;20.50;49.40
45233;DHT22;30969;51.052;17.056;2023-04-24T11:57:55;20.60;49.30
45233;DHT22;30969;51.052;17.056;2023-04-24T12:03:08;20.60;49.10
45233;DHT22;30969;51.052;17.056;2023-04-24T12:08:27;20.50;49.10
45233;DHT22;30969;51.052;17.056;2023-04-24T12:13:33;20.30;50.90
45233;DHT22;30969;51.052;17.056;2023-04-24T12:18:43;20.20;51.30
45233;DHT22;30969;51.052;17.056;2023-04-24T12:23:47;20.10;51.40
45233;DHT22;30969;51.052;17.056;2023-04-24T12:28:51;20.10;51.70
45233;DHT22;30969;51.052;17.056;2023-04-24T12:33:55;20.10;51.50
45233;DHT22;30969;51.052;17.056;2023-04-24T12:38:59;19.90;51.70
45233;DHT22;30969;51.052;17.056;2023-04-24T12:44:03;19.70;51.70
45233;DHT22;30969;51.052;17.056;2023-04-24T12:49:07;19.60;51.90
45233;DHT22;30969;51.052;17.056;2023-04-24T12:54:11;19.60;51.80
45233;DHT22;30969;51.052;17.056;2023-04-24T12:59:15;19.60;52.20
45233;DHT22;30969;51.052;17.056;2023-04-24T13:04:20;19.50;52.80
45233;DHT22;30969;51.052;17.056;2023-04-24T13:09:23;19.50;52.80
45233;DHT22;30969;51.052;17.056;2023-04-24T13:14:27;19.40;53.10
45233;DHT22;30969;51.052;17.056;2023-04-24T13:19:37;19.30;54.00
45233;DHT22;30969;51.052;17.056;2023-04-24T13:24:41;19.10;57.60
45233;DHT22;30969;51.052;17.056;2023-04-24T13:29:45;18.30;55.70
45233;DHT22;30969;51.052;17.056;2023-04-24T13:34:50;17.80;58.00
45233;DHT22;30969;51.052;17.056;2023-04-24T13:39:54;17.40;57.60
45233;DHT22;30969;51.052;17.056;2023-04-24T13:44:57;17.00;59.10
45233;DHT22;30969;51.052;17.056;2023-04-24T13:50:07;16.70;60.20
45233;DHT22;30969;51.052;17.056;2023-04-24T13:55:11;16.60;60.90
45233;DHT22;30969;51.052;17.056;2023-04-24T14:00:16;16.30;61.70
45233;DHT22;30969;51.052;17.056;2023-04-24T14:05:21;16.10;62.00
45233;DHT22;30969;51.052;17.056;2023-04-24T14:10:24;16.00;61.70
45233;DHT22;30969;51.052;17.056;2023-04-24T14:15:29;16.00;61.90
45233;DHT22;30969;51.052;17.056;2023-04-24T14:20:34;15.90;61.90
45233;DHT22;30969;51.052;17.056;2023-04-24T14:25:37;15.70;62.20
45233;DHT22;30969;51.052;17.056;2023-04-24T14:30:41;15.70;62.00
45233;DHT22;30969;51.052;17.056;2023-04-24T14:35:46;15.70;61.70
45233;DHT22;30969;51.052;17.056;2023-04-24T14:40:50;15.70;61.80
45233;DHT22;30969;51.052;17.056;2023-04-24T14:46:08;15.70;61.90
45233;DHT22;30969;51.052;17.056;2023-04-24T14:51:13;15.70;62.20
45233;DHT22;30969;51.052;17.056;2023-04-24T14:56:17;15.90;61.90
45233;DHT22;30969;51.052;17.056;2023-04-24T15:01:21;16.00;61.90
45233;DHT22;30969;51.052;17.056;2023-04-24T15:06:26;16.00;62.40
45233;DHT22;30969;51.052;17.056;2023-04-24T15:11:29;15.70;61.40
45233;DHT22;30969;51.052;17.056;2023-04-24T15:16:33;15.40;61.00
45233;DHT22;30969;51.052;17.056;2023-04-24T15:21:38;15.20;61.20
45233;DHT22;30969;51.052;17.056;2023-04-24T15:26:43;15.20;63.10
45233;DHT22;30969;51.052;17.056;2023-04-24T15:31:47;15.20;64.10
45233;DHT22;30969;51.052;17.056;2023-04-24T15:36:52;15.20;65.70
45233;DHT22;30969;51.052;17.056;2023-04-24T15:41:55;15.20;67.80
45233;DHT22;30969;51.052;17.056;2023-04-24T15:47:00;15.10;68.90
45233;DHT22;30969;51.052;17.056;2023-04-24T15:52:06;15.10;68.40
45233;DHT22;30969;51.052;17.056;2023-04-24T15:57:11;15.30;67.30
45233;DHT22;30969;51.052;17.056;2023-04-24T16:02:15;15.30;66.60
45233;DHT22;30969;51.052;17.056;2023-04-24T16:07:22;15.50;66.20
45233;DHT22;30969;51.052;17.056;2023-04-24T16:12:25;15.50;68.00
45233;DHT22;30969;51.052;17.056;2023-04-24T16:17:30;15.50;68.10
45233;DHT22;30969;51.052;17.056;2023-04-24T16:22:35;15.60;68.40
45233;DHT22;30969;51.052;17.056;2023-04-24T16:27:38;15.60;68.20
45233;DHT22;30969;51.052;17.056;2023-04-24T16:32:41;15.70;68.10
45233;DHT22;30969;51.052;17.056;2023-04-24T16:37:46;15.70;68.10
45233;DHT22;30969;51.052;17.056;2023-04-24T16:42:50;15.70;68.50
45233;DHT22;30969;51.052;17.056;2023-04-24T16:47:54;15.70;68.20
45233;DHT22;30969;51.052;17.056;2023-04-24T16:52:59;15.70;68.10
45233;DHT22;30969;51.052;17.056;2023-04-24T16:58:02;15.80;67.90
45233;DHT22;30969;51.052;17.056;2023-04-24T17:03:06;15.90;68.10
45233;DHT22;30969;51.052;17.056;2023-04-24T17:08:14;15.80;69.30
45233;DHT22;30969;51.052;17.056;2023-04-24T17:13:17;15.60;69.50
45233;DHT22;30969;51.052;17.056;2023-04-24T17:18:21;15.40;70.30
45233;DHT22;30969;51.052;17.056;2023-04-24T17:23:27;15.30;70.60
45233;DHT22;30969;51.052;17.056;2023-04-24T17:28:31;15.40;70.50
45233;DHT22;30969;51.052;17.056;2023-04-24T17:33:34;15.50;70.20
45233;DHT22;30969;51.052;17.056;2023-04-24T17:38:40;15.50;69.80
45233;DHT22;30969;51.052;17.056;2023-04-24T17:43:43;15.60;69.50
45233;DHT22;30969;51.052;17.056;2023-04-24T17:48:47;15.70;69.50
45233;DHT22;30969;51.052;17.056;2023-04-24T17:53:52;15.80;69.60
45233;DHT22;30969;51.052;17.056;2023-04-24T17:58:55;15.90;69.60
45233;DHT22;30969;51.052;17.056;2023-04-24T18:04:00;15.90;69.80
45233;DHT22;30969;51.052;17.056;2023-04-24T18:09:05;15.80;70.00
45233;DHT22;30969;51.052;17.056;2023-04-24T18:14:09;15.80;69.60
45233;DHT22;30969;51.052;17.056;2023-04-24T18:19:13;15.70;70.20
45233;DHT22;30969;51.052;17.056;2023-04-24T18:24:18;15.60;70.80
45233;DHT22;30969;51.052;17.056;2023-04-24T18:29:23;15.60;71.00
45233;DHT22;30969;51.052;17.056;2023-04-24T18:34:27;15.50;71.10
45233;DHT22;30969;51.052;17.056;2023-04-24T18:39:33;15.50;71.00
45233;DHT22;30969;51.052;17.056;2023-04-24T18:44:37;15.50;70.70
45233;DHT22;30969;51.052;17.056;2023-04-24T18:49:42;15.60;70.80
45233;DHT22;30969;51.052;17.056;2023-04-24T18:54:47;15.60;71.00
45233;DHT22;30969;51.052;17.056;2023-04-24T18:59:51;15.60;70.70
45233;DHT22;30969;51.052;17.056;2023-04-24T19:04:55;15.70;70.40
45233;DHT22;30969;51.052;17.056;2023-04-24T19:10:00;15.70;70.10
45233;DHT22;30969;51.052;17.056;2023-04-24T19:15:04;15.70;70.00
45233;DHT22;30969;51.052;17.056;2023-04-24T19:20:08;15.70;70.00
45233;DHT22;30969;51.052;17.056;2023-04-24T19:25:13;15.70;70.00
45233;DHT22;30969;51.052;17.056;2023-04-24T19:30:17;15.70;70.00
45233;DHT22;30969;51.052;17.056;2023-04-24T19:35:21;15.70;70.00
45233;DHT22;30969;51.052;17.056;2023-04-24T19:40:26;15.70;70.00
45233;DHT22;30969;51.052;17.056;2023-04-24T19:45:31;15.60;70.00
45233;DHT22;30969;51.052;17.056;2023-04-24T19:50:36;15.60;69.90
45233;DHT22;30969;51.052;17.056;2023-04-24T19:55:41;15.60;69.80
45233;DHT22;30969;51.052;17.056;2023-04-24T20:00:45;15.50;69.70
45233;DHT22;30969;51.052;17.056;2023-04-24T20:05:49;15.40;69.20
45233;DHT22;30969;51.052;17.056;2023-04-24T20:10:55;15.30;69.00
45233;DHT22;30969;51.052;17.056;2023-04-24T20:15:59;15.20;68.80
45233;DHT22;30969;51.052;17.056;2023-04-24T20:21:04;15.10;68.80
45233;DHT22;30969;51.052;17.056;2023-04-24T20:26:10;15.00;68.70
45233;DHT22;30969;51.052;17.056;2023-04-24T20:31:14;15.00;68.60
45233;DHT22;30969;51.052;17.056;2023-04-24T20:36:18;14.90;68.80
45233;DHT22;30969;51.052;17.056;2023-04-24T20:41:23;14.80;69.10
45233;DHT22;30969;51.052;17.056;2023-04-24T20:46:28;14.80;69.30
45233;DHT22;30969;51.052;17.056;2023-04-24T20:51:32;14.80;69.30
45233;DHT22;30969;51.052;17.056;2023-04-24T20:56:37;14.70;69.40
45233;DHT22;30969;51.052;17.056;2023-04-24T21:01:40;14.60;70.20
45233;DHT22;30969;51.052;17.056;2023-04-24T21:06:45;14.30;71.10
45233;DHT22;30969;51.052;17.056;2023-04-24T21:11:50;14.10;71.00
45233;DHT22;30969;51.052;17.056;2023-04-24T21:16:53;13.80;72.30
45233;DHT22;30969;51.052;17.056;2023-04-24T21:21:58;13.60;71.90
45233;DHT22;30969;51.052;17.056;2023-04-24T21:27:04;13.60;71.80
45233;DHT22;30969;51.052;17.056;2023-04-24T21:32:08;13.60;71.60
45233;DHT22;30969;51.052;17.056;2023-04-24T21:37:12;13.60;71.60
45233;DHT22;30969;51.052;17.056;2023-04-24T21:42:18;13.60;71.30
45233;DHT22;30969;51.052;17.056;2023-04-24T21:47:22;13.40;71.50
45233;DHT22;30969;51.052;17.056;2023-04-24T21:52:25;13.40;70.70
45233;DHT22;30969;51.052;17.056;2023-04-24T21:57:30;13.30;69.10
45233;DHT22;30969;51.052;17.056;2023-04-24T22:02:34;13.20;68.50
45233;DHT22;30969;51.052;17.056;2023-04-24T22:07:37;13.10;67.90
45233;DHT22;30969;51.052;17.056;2023-04-24T22:12:42;13.00;67.30
45233;DHT22;30969;51.052;17.056;2023-04-24T22:17:46;12.80;66.50
45233;DHT22;30969;51.052;17.056;2023-04-24T22:22:51;12.70;65.80
45233;DHT22;30969;51.052;17.056;2023-04-24T22:27:55;12.70;65.30
